Air Quality Table

TIMESTAMP NO2 O3 PM2.5 TEMP HUM AIRPRES WS WD NO
2021-08-04 01:00 21.72 ug/m3 78.47 ug/m3 19.37 ug/m3 30.61 C 58.27 % 1,001.78 mbar 1.42 m/s 193.54 Deg 3.07 ug/m3
2021-08-03 01:00 16.38 ug/m3 72.03 ug/m3 16.87 ug/m3 32.71 C 35.49 % 999.99 mbar 1 m/s 255.53 Deg 0.95 ug/m3
2021-08-02 01:00 7.14 ug/m3 80.98 ug/m3 15.2 ug/m3 32.99 C 35.01 % 998.74 mbar 1.18 m/s 267.39 Deg 0.32 ug/m3
2021-08-01 01:00 11.44 ug/m3 85.16 ug/m3 16.25 ug/m3 31.8 C 50.2 % 998.30 mbar 1.21 m/s 224.06 Deg 0.73 ug/m3
2021-07-31 01:00 8.03 ug/m3 78.78 ug/m3 14.07 ug/m3 31.55 C 29.89 % 1,000.40 mbar 1.2 m/s 269.8 Deg 0.61 ug/m3
2021-07-30 01:00 9.62 ug/m3 94.36 ug/m3 11.64 ug/m3 31.16 C 27.93 % 1,001.61 mbar 1.21 m/s 280.15 Deg 0.55 ug/m3
2021-07-29 01:00 10.45 ug/m3 98.37 ug/m3 10.8 ug/m3 29.69 C 36.13 % 1,002.63 mbar 1.5 m/s 173.61 Deg 0.56 ug/m3
2021-07-28 01:00 11.43 ug/m3 85.94 ug/m3 11.49 ug/m3 28.24 C 60.1 % 1,004.38 mbar 1.07 m/s 200.35 Deg 0.91 ug/m3
2021-07-27 01:00 9.81 ug/m3 75.46 ug/m3 9.88 ug/m3 27.69 C 65.14 % 1,003.11 mbar 1.94 m/s 190.69 Deg 1.92 ug/m3
2021-07-26 01:00 7.4 ug/m3 82.32 ug/m3 11.94 ug/m3 28.42 C 46.58 % 1,001.68 mbar 1.06 m/s 224.41 Deg 0.4 ug/m3
2021-07-25 01:00 4.99 ug/m3 91.38 ug/m3 7.96 ug/m3 28.45 C 45.49 % 1,001.69 mbar 1.14 m/s 296.09 Deg 0.32 ug/m3
2021-07-24 01:00 11.25 ug/m3 88.81 ug/m3 10.94 ug/m3 28.09 C 56.6 % 1,002.18 mbar 1.22 m/s 223.05 Deg 0.73 ug/m3
2021-07-23 01:00 5.66 ug/m3 94.44 ug/m3 10.74 ug/m3 28.06 C 54.53 % 1,003.42 mbar 1.43 m/s 264.54 Deg 0.41 ug/m3
2021-07-22 01:00 10.37 ug/m3 91.4 ug/m3 14.8 ug/m3 26.81 C 67.43 % 1,003.51 mbar 1.18 m/s 207.28 Deg 0.97 ug/m3
2021-07-21 01:00 6.58 ug/m3 103.33 ug/m3 13.86 ug/m3 25.8 C 74.55 % 1,000.30 mbar 1.44 m/s 227.53 Deg 0.6 ug/m3
2021-07-20 01:00 4.76 ug/m3 99.62 ug/m3 12.21 ug/m3 25.17 C 72.07 % 996.64 mbar 1.41 m/s 246.06 Deg 0.33 ug/m3
2021-07-19 01:00 1.29 ug/m3 103.82 ug/m3 11.29 ug/m3 24.58 C 75.08 % 994.32 mbar 2.15 m/s 313.8 Deg 0.1 ug/m3
2021-07-18 01:00 1.71 ug/m3 91.76 ug/m3 12.52 ug/m3 24.48 C 70.67 % 997.88 mbar 2.29 m/s 325.77 Deg 0.21 ug/m3
2021-07-17 01:00 4.9 ug/m3 76.59 ug/m3 9.79 ug/m3 26.13 C 64.64 % 1,000.30 mbar 1.71 m/s 292.85 Deg 0.61 ug/m3
2021-07-16 01:00 7.37 ug/m3 66.24 ug/m3 10.6 ug/m3 26.42 C 67.6 % 1,001.79 mbar 1.27 m/s 258 Deg 0.76 ug/m3
2021-07-15 01:00 5.41 ug/m3 78.04 ug/m3 13.21 ug/m3 27.59 C 70.71 % 1,000.80 mbar 1.13 m/s 270.39 Deg 0.47 ug/m3
2021-07-14 01:00 6.57 ug/m3 77.76 ug/m3 11.28 ug/m3 27.45 C 72.63 % 1,000.37 mbar 1.79 m/s 225.04 Deg 0.97 ug/m3
2021-07-13 01:00 11.81 ug/m3 68.18 ug/m3 12.16 ug/m3 27.47 C 72.5 % 1,001.35 mbar 1.35 m/s 206.91 Deg 2.27 ug/m3
2021-07-12 01:00 4.37 ug/m3 76.92 ug/m3 8.93 ug/m3 26.84 C 63.13 % 1,000.43 mbar 1.65 m/s 171.5 Deg 0.27 ug/m3
2021-07-11 01:00 3.59 ug/m3 78.3 ug/m3 9.27 ug/m3 27.62 C 65.74 % 1,000.51 mbar 1.58 m/s 274.1 Deg 0.37 ug/m3
2021-07-10 01:00 3.88 ug/m3 73.36 ug/m3 12.15 ug/m3 28.62 C 61.26 % 1,003.65 mbar 1.44 m/s 316.87 Deg 0.64 ug/m3
2021-07-09 01:00 9.25 ug/m3 70.62 ug/m3 10.53 ug/m3 29.14 C 58.7 % 1,004.48 mbar 1.2 m/s 257.41 Deg 1.58 ug/m3
2021-07-08 01:00 14.59 ug/m3 78.17 ug/m3 12.66 ug/m3 28.49 C 58.06 % 1,002.12 mbar 1.05 m/s 245.39 Deg 2.48 ug/m3
2021-07-07 01:00 9.52 ug/m3 82.17 ug/m3 11.29 ug/m3 27.89 C 57.89 % 1,000.49 mbar 1.38 m/s 235.49 Deg 1.35 ug/m3
2021-07-06 01:00 4.38 ug/m3 82.35 ug/m3 14.38 ug/m3 27.52 C 67.57 % 998.75 mbar 1.97 m/s 282.01 Deg 0.53 ug/m3

It is to be noted that the data is provisional and subject to quality assurance procedures. For validated data kindly refer your request to contact.air@era.org.mt